Time;durP1;ratioP1;P1;durP2;ratioP2;P2;SDS_P1;SDS_P2;PMS_P1;PMS_P2;Temp;Humidity;BMP_temperature;BMP_pressure;BME280_temperature;BME280_humidity;BME280_pressure;Samples;Min_cycle;Max_cycle;Signal;HPM_P1;HPM_P2
2022/04/26 03:38:07;;;;;;;;;;;18.10;94.20;;;;;;5036115;28;19930;-59
2022/04/26 03:40:34;;;;;;;;;;;18.00;94.20;;;;;;5010560;28;20415;-59
2022/04/26 03:43:02;;;;;;;;;;;18.00;94.20;;;;;;5006957;28;20448;-57
2022/04/26 03:45:29;;;;;;;;;;;18.00;94.20;;;;;;5008317;28;19925;-55
2022/04/26 03:47:57;;;;;;;;;;;18.00;94.20;;;;;;4996129;28;19937;-57
2022/04/26 03:50:24;;;;;;;;;;;18.00;94.20;;;;;;4998955;28;20385;-56
2022/04/26 03:52:52;;;;;;;;;;;18.00;94.20;;;;;;4992405;28;20390;-56
2022/04/26 03:55:24;;;;;;;;;;;18.00;94.20;;;;;;4996826;28;19925;-58
2022/04/26 03:57:51;;;;;;;;;;;18.00;94.20;;;;;;5010691;28;19929;-55
2022/04/26 04:00:19;;;;;;;;;;;18.00;94.20;;;;;;5016760;28;20312;-58
2022/04/26 04:02:46;;;;;;;;;;;18.00;94.40;;;;;;5003780;28;19934;-57
2022/04/26 04:05:14;;;;;;;;;;;18.00;94.20;;;;;;4990747;28;19933;-57
2022/04/26 04:07:41;;;;;;;;;;;18.00;94.20;;;;;;4994721;28;19926;-57
2022/04/26 04:10:08;;;;;;;;;;;18.00;94.20;;;;;;4993994;28;19929;-57
2022/04/26 04:12:35;;;;;;;;;;;18.00;94.20;;;;;;4995336;28;20318;-56
2022/04/26 04:15:03;;;;;;;;;;;18.00;94.20;;;;;;4996240;28;19929;-53
2022/04/26 04:17:30;;;;;;;;;;;18.00;94.20;;;;;;4991192;28;20329;-57
2022/04/26 04:19:57;;;;;;;;;;;18.00;94.20;;;;;;5000433;28;19929;-55
2022/04/26 04:22:24;;;;;;;;;;;18.00;94.30;;;;;;4987847;28;19926;-59
2022/04/26 04:24:51;;;;;;;;;;;18.00;94.30;;;;;;4991836;28;19930;-55
2022/04/26 04:27:18;;;;;;;;;;;18.00;94.30;;;;;;4988690;28;20572;-57
2022/04/26 04:29:45;;;;;;;;;;;18.00;94.30;;;;;;4991346;28;20428;-56
2022/04/26 04:32:12;;;;;;;;;;;18.00;94.20;;;;;;4997748;28;20351;-57
2022/04/26 04:34:40;;;;;;;;;;;18.00;94.30;;;;;;5006233;28;19926;-54
2022/04/26 04:37:08;;;;;;;;;;;18.00;94.30;;;;;;5002438;28;19934;-58
2022/04/26 04:39:35;;;;;;;;;;;18.00;94.30;;;;;;4992052;28;19925;-58
2022/04/26 04:42:03;;;;;;;;;;;18.00;94.30;;;;;;4995399;28;19945;-58
2022/04/26 04:44:31;;;;;;;;;;;18.00;94.30;;;;;;4994667;28;19929;-59
2022/04/26 04:47:00;;;;;;;;;;;18.00;94.30;;;;;;4999522;28;19930;-58
2022/04/26 04:49:27;;;;;;;;;;;18.00;94.30;;;;;;4996461;28;19941;-54
2022/04/26 04:51:54;;;;;;;;;;;18.00;94.30;;;;;;5001668;28;19941;-57
2022/04/26 04:54:21;;;;;;;;;;;18.00;94.60;;;;;;5002044;28;19926;-59
2022/04/26 04:56:48;;;;;;;;;;;17.90;94.30;;;;;;4995552;28;20438;-59
2022/04/26 04:59:21;;;;;;;;;;;17.90;94.30;;;;;;5019639;28;19926;-56
2022/04/26 05:01:48;;;;;;;;;;;18.00;94.30;;;;;;5005872;28;19936;-59
2022/04/26 05:04:15;;;;;;;;;;;18.00;94.30;;;;;;4992008;28;19933;-58
2022/04/26 05:06:43;;;;;;;;;;;18.00;94.30;;;;;;5004923;28;19937;-56
2022/04/26 05:09:10;;;;;;;;;;;18.00;94.20;;;;;;4992051;28;19930;-57
2022/04/26 05:11:37;;;;;;;;;;;18.10;94.10;;;;;;5010098;28;19933;-57
2022/04/26 05:14:04;;;;;;;;;;;18.10;94.10;;;;;;5009767;28;19937;-58
2022/04/26 05:16:31;;;;;;;;;;;18.10;94.00;;;;;;5001415;28;20001;-59
2022/04/26 05:18:59;;;;;;;;;;;18.20;94.00;;;;;;5007452;28;19929;-59
2022/04/26 05:21:26;;;;;;;;;;;18.20;93.90;;;;;;5008359;28;19945;-59
2022/04/26 05:26:39;;;;;;;;;;;18.30;93.90;;;;;;4994153;28;20396;-55
2022/04/26 05:29:06;;;;;;;;;;;18.20;93.80;;;;;;5005127;28;19937;-56
2022/04/26 05:31:34;;;;;;;;;;;18.20;93.80;;;;;;5002393;28;19937;-54
2022/04/26 05:34:01;;;;;;;;;;;18.20;93.80;;;;;;4994635;28;20380;-56
2022/04/26 05:36:34;;;;;;;;;;;18.30;93.80;;;;;;5000019;28;20444;-57
2022/04/26 05:39:01;;;;;;;;;;;18.20;93.80;;;;;;4990715;28;19929;-59
2022/04/26 05:41:28;;;;;;;;;;;18.20;93.80;;;;;;5004719;28;19930;-53
2022/04/26 05:43:56;;;;;;;;;;;18.20;93.80;;;;;;4996189;28;20389;-59
2022/04/26 05:46:23;;;;;;;;;;;18.20;93.80;;;;;;5005594;28;20389;-58
2022/04/26 05:48:50;;;;;;;;;;;18.20;93.80;;;;;;5003713;28;19925;-56
2022/04/26 05:51:17;;;;;;;;;;;18.20;94.10;;;;;;4996113;28;19930;-60
2022/04/26 05:53:48;;;;;;;;;;;18.20;93.80;;;;;;5001915;28;20422;-58
2022/04/26 05:56:16;;;;;;;;;;;18.20;93.80;;;;;;4998797;28;19933;-57
2022/04/26 05:58:43;;;;;;;;;;;18.20;93.90;;;;;;5000195;28;20040;-56
2022/04/26 06:01:10;;;;;;;;;;;18.20;93.90;;;;;;5006274;28;19929;-58
2022/04/26 06:03:37;;;;;;;;;;;18.20;93.90;;;;;;5004718;28;19933;-58
2022/04/26 06:06:05;;;;;;;;;;;18.20;93.90;;;;;;4992693;28;19933;-57
2022/04/26 06:08:32;;;;;;;;;;;18.20;93.90;;;;;;4999722;28;19937;-59
2022/04/26 06:10:59;;;;;;;;;;;18.20;94.00;;;;;;4993238;28;19933;-57
2022/04/26 06:13:26;;;;;;;;;;;18.20;94.00;;;;;;4990541;28;20766;-58
2022/04/26 06:15:54;;;;;;;;;;;18.20;94.00;;;;;;5014438;28;19925;-58
2022/04/26 06:18:22;;;;;;;;;;;18.20;94.00;;;;;;4992667;28;20594;-56
2022/04/26 06:20:49;;;;;;;;;;;18.10;94.00;;;;;;4999013;28;19952;-55
2022/04/26 06:23:16;;;;;;;;;;;18.10;94.00;;;;;;4992740;28;20397;-55
2022/04/26 06:25:43;;;;;;;;;;;18.10;94.00;;;;;;4999659;28;20004;-59
2022/04/26 06:28:11;;;;;;;;;;;18.10;94.10;;;;;;4994139;28;20421;-57
2022/04/26 06:30:38;;;;;;;;;;;18.10;94.10;;;;;;4998492;28;19936;-56
2022/04/26 06:33:06;;;;;;;;;;;18.10;94.10;;;;;;4993515;28;19933;-58
2022/04/26 06:35:40;;;;;;;;;;;18.10;94.10;;;;;;5003799;28;19926;-57
2022/04/26 06:38:07;;;;;;;;;;;18.10;94.10;;;;;;5001458;28;19937;-59
2022/04/26 06:40:34;;;;;;;;;;;18.10;94.10;;;;;;4991414;28;20317;-58
2022/04/26 06:43:01;;;;;;;;;;;18.10;94.10;;;;;;4989633;28;19937;-57
2022/04/26 06:45:29;;;;;;;;;;;18.00;94.10;;;;;;4992229;28;19941;-56
2022/04/26 06:47:56;;;;;;;;;;;18.10;94.20;;;;;;4989802;28;19936;-53
2022/04/26 06:50:23;;;;;;;;;;;18.10;94.10;;;;;;4993099;28;19951;-58
2022/04/26 06:52:51;;;;;;;;;;;18.10;94.20;;;;;;4995074;28;19933;-58
2022/04/26 06:55:18;;;;;;;;;;;18.10;94.20;;;;;;5003784;28;19930;-56
2022/04/26 06:57:46;;;;;;;;;;;18.10;94.20;;;;;;5012004;28;19948;-57
2022/04/26 07:00:14;;;;;;;;;;;18.00;94.20;;;;;;5000243;28;19930;-58
2022/04/26 07:02:42;;;;;;;;;;;18.00;94.20;;;;;;5001902;28;20101;-56
2022/04/26 07:05:11;;;;;;;;;;;18.10;94.20;;;;;;4993254;28;20239;-58
2022/04/26 07:07:38;;;;;;;;;;;18.00;94.20;;;;;;4994548;28;19937;-57
2022/04/26 07:10:06;;;;;;;;;;;18.00;94.20;;;;;;5001972;28;19926;-54
2022/04/26 07:12:33;;;;;;;;;;;18.10;94.20;;;;;;4993469;28;19926;-56
2022/04/26 07:15:00;;;;;;;;;;;18.00;94.20;;;;;;4999149;28;19940;-59
2022/04/26 07:17:28;;;;;;;;;;;18.00;94.20;;;;;;5009573;28;19937;-58
2022/04/26 07:19:57;;;;;;;;;;;18.00;94.20;;;;;;4988857;28;19934;-58
2022/04/26 07:22:29;;;;;;;;;;;18.00;94.20;;;;;;5006454;28;19937;-59
2022/04/26 07:24:57;;;;;;;;;;;18.00;94.30;;;;;;4995718;28;19941;-54
2022/04/26 07:27:25;;;;;;;;;;;18.00;94.30;;;;;;5001665;28;20603;-55
2022/04/26 07:29:52;;;;;;;;;;;18.00;94.30;;;;;;5005569;28;20044;-54
2022/04/26 07:32:19;;;;;;;;;;;18.10;94.30;;;;;;4995585;28;19933;-57
2022/04/26 07:34:47;;;;;;;;;;;18.00;94.20;;;;;;4993290;28;19929;-56
2022/04/26 07:37:14;;;;;;;;;;;18.00;94.20;;;;;;4989799;28;20407;-58
2022/04/26 07:39:42;;;;;;;;;;;18.00;94.20;;;;;;4997774;28;20381;-58
2022/04/26 07:42:10;;;;;;;;;;;18.00;94.20;;;;;;4995663;28;19930;-58
2022/04/26 07:44:39;;;;;;;;;;;18.00;94.20;;;;;;5004465;28;19929;-56
2022/04/26 07:47:07;;;;;;;;;;;18.00;94.30;;;;;;5010802;28;19934;-54
2022/04/26 07:49:35;;;;;;;;;;;18.00;94.30;;;;;;4989001;28;19940;-56
2022/04/26 07:52:03;;;;;;;;;;;18.00;94.30;;;;;;5008203;28;19932;-59
2022/04/26 07:54:31;;;;;;;;;;;18.00;94.30;;;;;;5005404;28;20460;-59
2022/04/26 07:56:58;;;;;;;;;;;18.00;94.40;;;;;;5002092;28;19930;-59
2022/04/26 07:59:28;;;;;;;;;;;18.00;94.40;;;;;;4999142;28;19930;-59
2022/04/26 08:01:56;;;;;;;;;;;18.00;94.40;;;;;;5007326;28;19926;-60
2022/04/26 08:04:24;;;;;;;;;;;18.00;94.40;;;;;;5003318;28;20393;-60
2022/04/26 08:06:51;;;;;;;;;;;18.00;94.40;;;;;;4992084;28;19929;-58
2022/04/26 08:09:18;;;;;;;;;;;18.00;94.40;;;;;;4998535;28;19936;-59
2022/04/26 08:11:46;;;;;;;;;;;18.00;94.40;;;;;;5009054;28;20004;-56
2022/04/26 08:14:14;;;;;;;;;;;18.00;94.40;;;;;;5008323;28;20400;-58
2022/04/26 08:16:41;;;;;;;;;;;18.00;94.40;;;;;;5010268;28;19932;-57
2022/04/26 08:19:10;;;;;;;;;;;18.00;94.40;;;;;;5000333;28;19930;-59
2022/04/26 08:21:38;;;;;;;;;;;17.90;94.40;;;;;;5005007;28;19926;-58
2022/04/26 08:29:37;;;;;;;;;;;18.00;94.40;;;;;;5000682;28;19930;-54
2022/04/26 08:32:05;;;;;;;;;;;18.00;94.40;;;;;;4994210;28;19953;-58
2022/04/26 08:34:33;;;;;;;;;;;17.90;94.40;;;;;;5002526;28;19937;-58
2022/04/26 08:37:00;;;;;;;;;;;17.90;94.40;;;;;;4997047;28;19936;-53
2022/04/26 08:39:27;;;;;;;;;;;17.90;94.40;;;;;;4999762;28;19930;-57
2022/04/26 08:41:58;;;;;;;;;;;18.00;94.40;;;;;;5002937;28;19933;-55
2022/04/26 08:44:26;;;;;;;;;;;18.00;94.50;;;;;;4997857;28;19941;-57
2022/04/26 08:52:26;;;;;;;;;;;18.00;94.40;;;;;;4998880;28;19929;-58
2022/04/26 08:54:53;;;;;;;;;;;18.00;94.40;;;;;;5005713;28;19936;-58
2022/04/26 08:57:20;;;;;;;;;;;18.00;94.40;;;;;;5008499;28;19925;-55
2022/04/26 08:59:48;;;;;;;;;;;17.90;94.40;;;;;;5035132;28;20417;-58
2022/04/26 09:02:19;;;;;;;;;;;18.00;94.40;;;;;;5006111;28;19933;-53
2022/04/26 09:04:52;;;;;;;;;;;18.00;94.40;;;;;;4994964;28;19937;-57
2022/04/26 09:07:29;;;;;;;;;;;18.00;94.40;;;;;;4993468;28;19933;-57
2022/04/26 09:10:09;;;;;;;;;;;18.00;94.40;;;;;;4994074;28;19925;-58
2022/04/26 09:12:55;;;;;;;;;;;18.00;94.40;;;;;;4999744;28;19926;-58
2022/04/26 09:15:22;;;;;;;;;;;18.00;94.40;;;;;;5001739;28;20316;-56
2022/04/26 09:17:49;;;;;;;;;;;18.00;94.50;;;;;;5005273;28;19940;-58
2022/04/26 09:20:31;;;;;;;;;;;18.00;94.50;;;;;;4997177;28;19929;-56
2022/04/26 09:22:59;;;;;;;;;;;18.00;94.50;;;;;;4992110;28;20262;-55
2022/04/26 09:25:27;;;;;;;;;;;18.00;94.50;;;;;;5001428;28;19926;-57
2022/04/26 09:27:57;;;;;;;;;;;18.00;94.50;;;;;;5004107;28;20203;-58
2022/04/26 09:30:28;;;;;;;;;;;18.00;94.50;;;;;;5008911;28;19925;-55
2022/04/26 09:32:55;;;;;;;;;;;18.00;94.50;;;;;;5006898;28;20293;-56
2022/04/26 09:35:23;;;;;;;;;;;18.00;94.50;;;;;;5006621;28;20455;-54
2022/04/26 09:37:50;;;;;;;;;;;18.00;94.50;;;;;;4998304;28;20229;-57
2022/04/26 09:40:26;;;;;;;;;;;18.00;94.50;;;;;;5011425;28;20378;-58
2022/04/26 09:42:54;;;;;;;;;;;18.00;94.50;;;;;;4992783;28;20309;-58
2022/04/26 09:45:21;;;;;;;;;;;18.00;94.50;;;;;;5003089;28;19936;-58
2022/04/26 09:47:50;;;;;;;;;;;17.90;94.60;;;;;;5005479;28;19940;-57
2022/04/26 09:50:17;;;;;;;;;;;17.90;94.60;;;;;;4993100;28;19936;-56
2022/04/26 09:52:44;;;;;;;;;;;18.00;94.60;;;;;;5002923;28;19936;-56
2022/04/26 09:55:13;;;;;;;;;;;17.90;94.60;;;;;;5000125;28;20408;-60
2022/04/26 09:57:44;;;;;;;;;;;17.90;94.60;;;;;;5021324;28;19932;-57
2022/04/26 10:00:12;;;;;;;;;;;17.90;94.60;;;;;;5001979;28;20392;-58
2022/04/26 10:02:49;;;;;;;;;;;18.00;94.60;;;;;;4999180;28;20349;-59
2022/04/26 10:05:21;;;;;;;;;;;18.00;94.60;;;;;;5000945;28;19930;-58
2022/04/26 10:07:49;;;;;;;;;;;18.00;94.80;;;;;;5010268;28;20301;-59
2022/04/26 10:10:18;;;;;;;;;;;17.90;94.60;;;;;;4999658;28;19930;-59
2022/04/26 10:13:31;;;;;;;;;;;17.90;94.60;;;;;;4991850;28;19926;-56
2022/04/26 10:15:34;;;;;;;;;;;17.90;94.60;;;;;;5009577;28;19949;-59
2022/04/26 10:18:21;;;;;;;;;;;17.90;94.60;;;;;;4998604;28;20006;-58
2022/04/26 10:20:48;;;;;;;;;;;17.90;94.60;;;;;;4992913;28;19929;-54
2022/04/26 10:23:16;;;;;;;;;;;17.90;94.60;;;;;;4990419;28;20528;-58
2022/04/26 10:26:03;;;;;;;;;;;17.90;94.60;;;;;;5001350;28;19960;-57
2022/04/26 10:28:32;;;;;;;;;;;17.90;94.60;;;;;;4994834;28;20327;-57
2022/04/26 10:30:59;;;;;;;;;;;17.90;94.70;;;;;;5000756;28;19926;-59
2022/04/26 10:33:36;;;;;;;;;;;17.90;94.70;;;;;;4993291;28;20274;-58
2022/04/26 10:36:22;;;;;;;;;;;17.90;94.70;;;;;;4990828;28;20305;-57
2022/04/26 10:39:04;;;;;;;;;;;17.90;94.70;;;;;;4991860;28;19936;-56
2022/04/26 10:41:33;;;;;;;;;;;17.80;94.70;;;;;;4997246;28;20333;-58
2022/04/26 10:44:13;;;;;;;;;;;17.90;94.70;;;;;;5007816;28;19929;-56
2022/04/26 10:46:41;;;;;;;;;;;17.90;94.70;;;;;;4995087;28;19957;-54
2022/04/26 10:49:26;;;;;;;;;;;17.90;94.70;;;;;;4993465;28;20390;-55
2022/04/26 10:51:57;;;;;;;;;;;17.90;94.70;;;;;;5006394;28;19929;-58
2022/04/26 10:54:43;;;;;;;;;;;17.90;94.70;;;;;;4992744;28;19926;-56
2022/04/26 10:57:11;;;;;;;;;;;17.90;94.60;;;;;;5002546;28;19934;-56
2022/04/26 10:59:41;;;;;;;;;;;17.90;94.60;;;;;;5003877;28;20017;-58
2022/04/26 11:02:12;;;;;;;;;;;17.90;94.60;;;;;;4997959;28;20310;-56
2022/04/26 11:04:40;;;;;;;;;;;17.90;94.60;;;;;;4989745;28;19933;-57
2022/04/26 11:07:11;;;;;;;;;;;17.90;94.60;;;;;;5009078;28;19930;-56
2022/04/26 11:09:44;;;;;;;;;;;17.90;94.60;;;;;;4993455;28;19926;-54
2022/04/26 11:12:11;;;;;;;;;;;17.90;94.60;;;;;;4990812;28;19926;-57
2022/04/26 11:14:42;;;;;;;;;;;17.90;94.60;;;;;;4990162;28;19932;-59
2022/04/26 11:17:09;;;;;;;;;;;17.90;94.60;;;;;;5016718;28;19936;-58
2022/04/26 11:19:37;;;;;;;;;;;17.90;94.60;;;;;;4993630;28;20309;-56
2022/04/26 11:22:09;;;;;;;;;;;17.90;94.60;;;;;;4996212;28;19925;-55
2022/04/26 11:30:10;;;;;;;;;;;17.90;94.60;;;;;;4989119;28;19926;-56
2022/04/26 11:32:44;;;;;;;;;;;17.90;94.60;;;;;;5007180;28;19930;-57
2022/04/26 11:35:13;;;;;;;;;;;17.90;94.60;;;;;;5007993;28;19926;-58
2022/04/26 11:37:46;;;;;;;;;;;17.90;94.60;;;;;;4996629;28;19933;-58
2022/04/26 11:40:32;;;;;;;;;;;17.90;94.70;;;;;;5004167;28;19929;-57
2022/04/26 11:43:13;;;;;;;;;;;17.90;94.60;;;;;;4988329;28;20309;-56
2022/04/26 11:45:44;;;;;;;;;;;17.90;94.60;;;;;;4992204;28;19933;-53
2022/04/26 11:48:13;;;;;;;;;;;17.90;94.60;;;;;;4996570;28;19926;-55
2022/04/26 11:50:40;;;;;;;;;;;17.90;94.60;;;;;;5003525;28;19937;-56
2022/04/26 11:53:11;;;;;;;;;;;18.00;94.60;;;;;;4992201;28;19929;-54
2022/04/26 11:55:40;;;;;;;;;;;18.00;94.60;;;;;;4991704;28;19929;-58
2022/04/26 11:58:10;;;;;;;;;;;18.00;94.60;;;;;;5009640;28;19968;-57
2022/04/26 12:00:49;;;;;;;;;;;18.00;94.50;;;;;;5005403;28;19937;-58
2022/04/26 12:03:17;;;;;;;;;;;18.00;94.50;;;;;;4995733;28;19930;-57
2022/04/26 12:05:46;;;;;;;;;;;18.00;94.50;;;;;;5001260;28;19932;-56
2022/04/26 12:08:13;;;;;;;;;;;18.00;94.50;;;;;;4989113;28;19936;-58
2022/04/26 12:10:40;;;;;;;;;;;18.10;94.50;;;;;;4995529;28;19933;-55
2022/04/26 12:13:07;;;;;;;;;;;18.00;94.60;;;;;;5002174;28;20416;-59
2022/04/26 12:15:38;;;;;;;;;;;18.10;94.60;;;;;;4998541;28;19930;-57
2022/04/26 12:18:09;;;;;;;;;;;18.10;94.60;;;;;;5007409;28;19926;-59
2022/04/26 12:20:37;;;;;;;;;;;18.10;94.60;;;;;;4995783;28;20393;-59
2022/04/26 12:23:05;;;;;;;;;;;18.10;94.60;;;;;;4988559;28;19929;-59
2022/04/26 12:25:33;;;;;;;;;;;18.10;94.60;;;;;;5005159;28;20297;-58
2022/04/26 12:28:02;;;;;;;;;;;18.10;94.60;;;;;;4993388;28;19930;-57
2022/04/26 12:30:30;;;;;;;;;;;18.10;94.60;;;;;;4995589;28;19925;-57
2022/04/26 12:32:57;;;;;;;;;;;18.10;94.60;;;;;;5001835;28;19955;-58
2022/04/26 12:35:24;;;;;;;;;;;18.10;94.60;;;;;;5007310;28;19925;-60
2022/04/26 12:38:04;;;;;;;;;;;18.10;94.70;;;;;;5007862;28;19934;-54
2022/04/26 12:40:31;;;;;;;;;;;18.10;94.70;;;;;;5000151;28;19933;-57
2022/04/26 12:42:58;;;;;;;;;;;18.10;94.70;;;;;;4988143;28;19937;-57
2022/04/26 12:45:25;;;;;;;;;;;18.10;94.70;;;;;;4994340;28;19930;-56
2022/04/26 12:50:49;;;;;;;;;;;18.00;94.70;;;;;;4996964;28;20249;-57
2022/04/26 12:53:21;;;;;;;;;;;18.00;94.70;;;;;;4989765;28;20345;-56
2022/04/26 12:55:48;;;;;;;;;;;18.00;94.70;;;;;;5004594;28;20486;-56
2022/04/26 12:58:17;;;;;;;;;;;18.00;94.70;;;;;;5014609;28;19925;-58
2022/04/26 13:00:50;;;;;;;;;;;18.00;94.80;;;;;;5007953;28;19933;-57
2022/04/26 13:03:19;;;;;;;;;;;18.00;94.80;;;;;;5009336;28;20404;-60
2022/04/26 13:05:51;;;;;;;;;;;18.00;94.80;;;;;;4995008;28;19941;-53
2022/04/26 13:08:20;;;;;;;;;;;17.90;94.80;;;;;;5009844;28;19925;-55
2022/04/26 13:10:48;;;;;;;;;;;17.90;94.80;;;;;;4995060;28;19930;-56
2022/04/26 13:13:16;;;;;;;;;;;17.90;94.80;;;;;;5009593;28;19933;-58
2022/04/26 13:15:44;;;;;;;;;;;17.90;94.80;;;;;;5006004;28;19930;-54
2022/04/26 13:18:14;;;;;;;;;;;17.90;94.80;;;;;;4998516;28;19929;-55
2022/04/26 13:20:43;;;;;;;;;;;17.90;94.80;;;;;;4999884;28;20396;-58
2022/04/26 13:23:12;;;;;;;;;;;17.90;94.80;;;;;;4994535;28;19940;-57
2022/04/26 13:25:40;;;;;;;;;;;17.90;94.80;;;;;;5005804;28;19933;-58
2022/04/26 13:28:07;;;;;;;;;;;17.90;94.80;;;;;;4996000;28;19941;-58
2022/04/26 13:30:35;;;;;;;;;;;17.90;94.80;;;;;;4994170;28;20419;-57
2022/04/26 13:33:03;;;;;;;;;;;17.90;94.70;;;;;;4991284;28;19930;-55
2022/04/26 13:35:30;;;;;;;;;;;17.90;94.70;;;;;;4994356;28;19926;-57
2022/04/26 13:38:00;;;;;;;;;;;17.90;94.70;;;;;;5000033;28;19929;-58
2022/04/26 13:40:27;;;;;;;;;;;17.90;94.70;;;;;;5005269;28;20194;-54
2022/04/26 13:42:56;;;;;;;;;;;17.90;94.70;;;;;;4993190;28;19945;-59
2022/04/26 13:45:24;;;;;;;;;;;17.90;94.70;;;;;;5010179;28;19929;-56
2022/04/26 13:47:51;;;;;;;;;;;17.90;94.70;;;;;;5010945;28;19929;-55
2022/04/26 13:50:19;;;;;;;;;;;17.90;94.70;;;;;;5001367;28;19930;-56
2022/04/26 13:52:46;;;;;;;;;;;17.90;94.70;;;;;;4995052;28;19960;-58
2022/04/26 13:55:17;;;;;;;;;;;17.90;94.70;;;;;;5002451;28;19937;-57
2022/04/26 13:57:45;;;;;;;;;;;17.90;94.70;;;;;;5013632;28;19925;-55
2022/04/26 14:00:15;;;;;;;;;;;17.90;94.70;;;;;;5021352;28;19930;-56
2022/04/26 14:02:46;;;;;;;;;;;17.90;94.70;;;;;;5007567;28;20675;-58
2022/04/26 14:05:15;;;;;;;;;;;17.90;94.70;;;;;;5008915;28;19925;-58
2022/04/26 14:07:43;;;;;;;;;;;17.90;94.70;;;;;;4996455;28;19929;-57
2022/04/26 14:10:10;;;;;;;;;;;17.90;94.70;;;;;;5008584;28;19937;-57
2022/04/26 14:12:38;;;;;;;;;;;17.90;94.70;;;;;;4996298;28;20321;-59
2022/04/26 14:23:26;;;;;;;;;;;17.90;94.70;;;;;;5011380;28;19951;-59
2022/04/26 14:25:59;;;;;;;;;;;17.90;94.70;;;;;;4999753;28;19930;-59
2022/04/26 14:28:26;;;;;;;;;;;17.90;94.70;;;;;;4997958;28;19926;-58
2022/04/26 14:30:53;;;;;;;;;;;17.90;94.70;;;;;;5001014;28;19937;-56
2022/04/26 14:33:21;;;;;;;;;;;17.90;94.70;;;;;;4994366;28;19925;-57
2022/04/26 14:35:48;;;;;;;;;;;17.90;94.70;;;;;;4995556;28;19929;-56
2022/04/26 14:38:15;;;;;;;;;;;17.90;94.70;;;;;;4998528;28;19926;-56
2022/04/26 14:40:43;;;;;;;;;;;17.90;94.70;;;;;;5010134;28;19972;-51
2022/04/26 14:43:11;;;;;;;;;;;17.90;94.70;;;;;;5003325;28;20412;-58
2022/04/26 14:45:45;;;;;;;;;;;17.90;94.70;;;;;;5003774;28;20400;-57
2022/04/26 14:48:16;;;;;;;;;;;17.90;94.70;;;;;;5014076;28;19936;-58
2022/04/26 14:50:54;;;;;;;;;;;17.90;95.00;;;;;;5004279;28;19933;-58
2022/04/26 14:53:21;;;;;;;;;;;17.90;94.70;;;;;;5009765;28;20466;-57
2022/04/26 14:56:06;;;;;;;;;;;17.90;94.70;;;;;;5002327;28;19930;-58
2022/04/26 14:58:53;;;;;;;;;;;17.90;94.70;;;;;;4995146;28;19929;-56
2022/04/26 15:01:21;;;;;;;;;;;17.90;94.70;;;;;;5004705;28;19937;-55
2022/04/26 15:03:48;;;;;;;;;;;17.90;94.70;;;;;;5004947;28;19930;-55
2022/04/26 15:06:16;;;;;;;;;;;17.90;94.70;;;;;;4988931;28;19929;-54
2022/04/26 15:11:29;;;;;;;;;;;17.90;94.70;;;;;;4998530;28;20028;-55
2022/04/26 15:16:46;;;;;;;;;;;17.90;94.70;;;;;;5013044;28;19949;-57
2022/04/26 15:19:14;;;;;;;;;;;17.80;94.70;;;;;;4992519;28;19929;-57
2022/04/26 15:21:43;;;;;;;;;;;17.80;94.70;;;;;;5006506;28;20185;-54
2022/04/26 15:24:11;;;;;;;;;;;17.80;94.70;;;;;;5000729;28;20024;-57
2022/04/26 15:26:39;;;;;;;;;;;17.80;94.70;;;;;;5007377;28;19948;-58
2022/04/26 15:29:06;;;;;;;;;;;17.80;94.70;;;;;;5002300;28;20278;-55
2022/04/26 15:31:34;;;;;;;;;;;17.80;94.70;;;;;;4994041;28;19930;-56
2022/04/26 15:34:02;;;;;;;;;;;17.80;94.70;;;;;;4988301;28;19941;-56
2022/04/26 15:36:29;;;;;;;;;;;17.80;94.70;;;;;;4996054;28;19933;-58
2022/04/26 15:38:58;;;;;;;;;;;17.80;94.70;;;;;;4991779;28;19929;-54
2022/04/26 15:41:26;;;;;;;;;;;17.80;94.70;;;;;;5006144;28;19940;-56
2022/04/26 15:43:54;;;;;;;;;;;17.80;94.70;;;;;;5004726;28;19948;-57
2022/04/26 15:46:41;;;;;;;;;;;17.80;94.70;;;;;;5010775;28;19937;-54
2022/04/26 15:49:09;;;;;;;;;;;17.80;94.70;;;;;;4998156;28;19932;-57
2022/04/26 15:51:37;;;;;;;;;;;17.80;94.70;;;;;;5040104;28;19929;-58
2022/04/26 15:54:05;;;;;;;;;;;17.80;94.70;;;;;;4995040;28;19929;-56
2022/04/26 15:56:33;;;;;;;;;;;17.80;94.70;;;;;;5000247;28;19929;-57
2022/04/26 15:59:01;;;;;;;;;;;17.80;94.70;;;;;;5013489;28;19926;-55
2022/04/26 16:01:35;;;;;;;;;;;17.80;94.70;;;;;;5004191;28;19929;-55
2022/04/26 16:04:03;;;;;;;;;;;17.80;94.70;;;;;;5006998;28;19948;-54
2022/04/26 16:06:30;;;;;;;;;;;17.80;94.70;;;;;;5006504;28;19930;-57
2022/04/26 16:20:28;;;;;;;;;;;17.80;94.70;;;;;;4989649;28;20428;-54
2022/04/26 16:22:49;;;;;;;;;;;17.80;94.70;;;;;;4988948;28;20012;-60
2022/04/26 16:25:16;;;;;;;;;;;17.80;94.70;;;;;;4998768;28;19930;-59
2022/04/26 16:27:43;;;;;;;;;;;17.70;94.70;;;;;;4994499;28;19937;-59
2022/04/26 16:30:11;;;;;;;;;;;17.80;94.70;;;;;;4991869;28;19930;-56
2022/04/26 16:32:38;;;;;;;;;;;17.80;94.70;;;;;;4987934;28;19937;-58
2022/04/26 16:35:06;;;;;;;;;;;17.80;94.70;;;;;;4989208;28;19926;-56
2022/04/26 16:37:37;;;;;;;;;;;17.80;94.70;;;;;;4990139;28;19934;-58
2022/04/26 16:40:04;;;;;;;;;;;17.80;94.70;;;;;;5005250;28;19930;-56
2022/04/26 16:42:31;;;;;;;;;;;17.80;94.60;;;;;;5030610;28;19929;-54
2022/04/26 16:44:58;;;;;;;;;;;17.70;94.70;;;;;;5004887;28;19929;-56
2022/04/26 16:47:26;;;;;;;;;;;17.70;94.60;;;;;;5005678;28;20411;-56
2022/04/26 16:49:54;;;;;;;;;;;17.80;94.70;;;;;;5006048;28;19934;-60
2022/04/26 16:52:21;;;;;;;;;;;17.70;94.60;;;;;;5004440;28;19925;-55
2022/04/26 16:54:50;;;;;;;;;;;17.70;94.60;;;;;;4993242;28;19930;-57
2022/04/26 16:57:17;;;;;;;;;;;17.80;94.60;;;;;;5004614;28;20425;-56
2022/04/26 16:59:44;;;;;;;;;;;17.80;94.60;;;;;;5000079;28;19926;-58
2022/04/26 17:02:18;;;;;;;;;;;17.80;94.60;;;;;;5004468;28;19930;-56
2022/04/26 17:04:45;;;;;;;;;;;17.80;94.60;;;;;;4997491;28;20397;-55
2022/04/26 17:07:12;;;;;;;;;;;17.70;94.60;;;;;;4999004;28;20021;-57
2022/04/26 17:09:40;;;;;;;;;;;17.70;94.60;;;;;;4998042;28;20401;-59
2022/04/26 17:12:08;;;;;;;;;;;17.80;94.60;;;;;;5003115;28;19930;-54
2022/04/26 17:14:35;;;;;;;;;;;17.80;94.60;;;;;;5004739;28;19933;-55
2022/04/26 17:17:04;;;;;;;;;;;17.80;94.60;;;;;;5010162;28;20032;-59
2022/04/26 17:19:31;;;;;;;;;;;17.80;94.60;;;;;;5003967;28;19937;-55
2022/04/26 17:21:59;;;;;;;;;;;17.70;94.60;;;;;;4998776;28;19930;-56
2022/04/26 17:27:12;;;;;;;;;;;17.70;94.60;;;;;;4991536;28;20396;-57
2022/04/26 17:29:39;;;;;;;;;;;17.80;94.60;;;;;;4995696;28;19925;-58
2022/04/26 17:32:12;;;;;;;;;;;17.70;94.60;;;;;;5010770;28;20248;-57
2022/04/26 17:34:40;;;;;;;;;;;17.70;94.60;;;;;;4994427;28;19937;-55
2022/04/26 17:37:07;;;;;;;;;;;17.70;94.60;;;;;;4990860;28;19937;-54
2022/04/26 17:39:36;;;;;;;;;;;17.70;94.60;;;;;;4993794;28;19937;-56
2022/04/26 17:42:06;;;;;;;;;;;17.70;94.60;;;;;;5010205;28;19925;-55
2022/04/26 17:44:34;;;;;;;;;;;17.70;94.60;;;;;;4998867;28;19944;-56
2022/04/26 17:47:03;;;;;;;;;;;17.70;94.60;;;;;;5006989;28;19930;-56
2022/04/26 17:49:50;;;;;;;;;;;17.70;94.60;;;;;;5008407;28;19929;-56
2022/04/26 17:52:17;;;;;;;;;;;17.70;94.60;;;;;;4991746;28;19930;-58
2022/04/26 17:57:30;;;;;;;;;;;17.70;94.60;;;;;;5007500;28;20393;-57
2022/04/26 17:59:57;;;;;;;;;;;17.80;94.60;;;;;;5014416;28;20336;-59
2022/04/26 18:02:25;;;;;;;;;;;17.80;94.60;;;;;;5011766;28;19925;-57
2022/04/26 18:04:53;;;;;;;;;;;17.80;94.60;;;;;;5008509;28;19940;-57
2022/04/26 18:07:20;;;;;;;;;;;17.70;94.60;;;;;;4997009;28;20452;-56
2022/04/26 18:09:47;;;;;;;;;;;17.70;94.60;;;;;;4995721;28;19929;-60
2022/04/26 18:12:14;;;;;;;;;;;17.70;94.60;;;;;;4999853;28;20232;-58
2022/04/26 18:14:42;;;;;;;;;;;17.80;94.60;;;;;;4993109;28;19926;-56
2022/04/26 18:17:09;;;;;;;;;;;17.70;94.60;;;;;;5011449;28;19994;-57
2022/04/26 18:19:37;;;;;;;;;;;17.70;94.60;;;;;;5004996;28;19929;-54
2022/04/26 18:22:04;;;;;;;;;;;17.70;94.60;;;;;;5002317;28;19930;-55
2022/04/26 18:24:32;;;;;;;;;;;17.70;94.60;;;;;;4992523;28;19930;-55
2022/04/26 18:27:00;;;;;;;;;;;17.70;94.60;;;;;;4999508;28;20348;-55
2022/04/26 18:29:27;;;;;;;;;;;17.70;94.60;;;;;;4996053;28;19925;-55
2022/04/26 18:31:55;;;;;;;;;;;17.70;94.60;;;;;;4989146;28;20021;-56
2022/04/26 18:34:22;;;;;;;;;;;17.70;94.60;;;;;;4989968;28;19934;-57
2022/04/26 18:36:53;;;;;;;;;;;17.70;94.60;;;;;;4992386;28;19929;-57
2022/04/26 18:39:21;;;;;;;;;;;17.70;94.60;;;;;;4996031;28;19932;-60
2022/04/26 18:41:49;;;;;;;;;;;17.70;94.60;;;;;;4995645;28;20048;-60
2022/04/26 18:44:23;;;;;;;;;;;17.70;94.60;;;;;;4995422;28;19925;-58
2022/04/26 18:46:51;;;;;;;;;;;17.60;94.60;;;;;;5000934;28;20286;-57
2022/04/26 18:49:21;;;;;;;;;;;17.70;94.60;;;;;;4994654;28;19933;-58
2022/04/26 18:51:52;;;;;;;;;;;17.70;94.60;;;;;;5003054;28;19926;-56
2022/04/26 18:54:22;;;;;;;;;;;17.70;94.60;;;;;;5002315;28;20307;-58
2022/04/26 18:56:50;;;;;;;;;;;17.60;94.60;;;;;;5000878;28;19929;-57